sensor_id;sensor_type;location;lat;lon;timestamp;P1;durP1;ratioP1;P2;durP2;ratioP2
63398;SDS011;49533;-34.520;150.798;2023-04-25T00:02:24;7.88;;;2.70;;
63398;SDS011;49533;-34.520;150.798;2023-04-25T00:04:51;9.15;;;3.03;;
63398;SDS011;49533;-34.520;150.798;2023-04-25T00:07:19;7.05;;;2.47;;
63398;SDS011;49533;-34.520;150.798;2023-04-25T00:09:46;7.18;;;2.75;;
63398;SDS011;49533;-34.520;150.798;2023-04-25T00:12:14;6.28;;;2.65;;
63398;SDS011;49533;-34.520;150.798;2023-04-25T00:14:41;6.10;;;2.53;;
63398;SDS011;49533;-34.520;150.798;2023-04-25T00:17:09;7.07;;;2.88;;
63398;SDS011;49533;-34.520;150.798;2023-04-25T00:19:36;7.88;;;3.05;;
63398;SDS011;49533;-34.520;150.798;2023-04-25T00:22:04;5.10;;;2.78;;
63398;SDS011;49533;-34.520;150.798;2023-04-25T00:24:31;8.70;;;3.40;;
63398;SDS011;49533;-34.520;150.798;2023-04-25T00:26:58;5.25;;;2.88;;
63398;SDS011;49533;-34.520;150.798;2023-04-25T00:29:25;6.95;;;3.45;;
63398;SDS011;49533;-34.520;150.798;2023-04-25T00:31:52;6.03;;;2.95;;
63398;SDS011;49533;-34.520;150.798;2023-04-25T00:34:19;7.00;;;2.80;;
63398;SDS011;49533;-34.520;150.798;2023-04-25T00:36:46;5.70;;;2.85;;
63398;SDS011;49533;-34.520;150.798;2023-04-25T00:39:14;8.95;;;3.75;;
63398;SDS011;49533;-34.520;150.798;2023-04-25T00:41:42;8.77;;;3.13;;
63398;SDS011;49533;-34.520;150.798;2023-04-25T00:44:10;7.55;;;3.65;;
63398;SDS011;49533;-34.520;150.798;2023-04-25T00:46:39;6.40;;;3.30;;
63398;SDS011;49533;-34.520;150.798;2023-04-25T00:49:06;6.30;;;3.60;;
63398;SDS011;49533;-34.520;150.798;2023-04-25T00:51:33;9.48;;;3.80;;
63398;SDS011;49533;-34.520;150.798;2023-04-25T00:54:01;8.63;;;3.85;;
63398;SDS011;49533;-34.520;150.798;2023-04-25T00:56:28;5.03;;;3.45;;
63398;SDS011;49533;-34.520;150.798;2023-04-25T00:58:56;7.95;;;3.53;;
63398;SDS011;49533;-34.520;150.798;2023-04-25T01:01:23;8.38;;;3.40;;
63398;SDS011;49533;-34.520;150.798;2023-04-25T01:03:51;7.32;;;4.05;;
63398;SDS011;49533;-34.520;150.798;2023-04-25T01:06:20;5.53;;;3.20;;
63398;SDS011;49533;-34.520;150.798;2023-04-25T01:08:47;6.15;;;3.70;;
63398;SDS011;49533;-34.520;150.798;2023-04-25T01:11:15;6.75;;;3.75;;
63398;SDS011;49533;-34.520;150.798;2023-04-25T01:13:43;5.05;;;3.42;;
63398;SDS011;49533;-34.520;150.798;2023-04-25T01:16:11;7.15;;;4.30;;
63398;SDS011;49533;-34.520;150.798;2023-04-25T01:18:38;6.63;;;3.50;;
63398;SDS011;49533;-34.520;150.798;2023-04-25T01:21:08;9.15;;;4.32;;
63398;SDS011;49533;-34.520;150.798;2023-04-25T01:23:36;4.60;;;3.15;;
63398;SDS011;49533;-34.520;150.798;2023-04-25T01:26:06;7.63;;;3.80;;
63398;SDS011;49533;-34.520;150.798;2023-04-25T01:28:35;9.52;;;3.97;;
63398;SDS011;49533;-34.520;150.798;2023-04-25T01:31:03;6.95;;;4.07;;
63398;SDS011;49533;-34.520;150.798;2023-04-25T01:33:31;6.07;;;3.60;;
63398;SDS011;49533;-34.520;150.798;2023-04-25T01:35:58;6.22;;;3.38;;
63398;SDS011;49533;-34.520;150.798;2023-04-25T01:38:25;6.60;;;3.65;;
63398;SDS011;49533;-34.520;150.798;2023-04-25T01:40:53;5.03;;;3.85;;
63398;SDS011;49533;-34.520;150.798;2023-04-25T01:43:21;4.80;;;3.53;;
63398;SDS011;49533;-34.520;150.798;2023-04-25T01:45:49;4.53;;;3.53;;
63398;SDS011;49533;-34.520;150.798;2023-04-25T01:48:17;6.65;;;3.90;;
63398;SDS011;49533;-34.520;150.798;2023-04-25T01:50:44;3.53;;;3.20;;
63398;SDS011;49533;-34.520;150.798;2023-04-25T01:53:12;5.10;;;3.70;;
63398;SDS011;49533;-34.520;150.798;2023-04-25T01:55:40;7.20;;;3.72;;
63398;SDS011;49533;-34.520;150.798;2023-04-25T01:58:07;6.90;;;3.40;;
63398;SDS011;49533;-34.520;150.798;2023-04-25T02:00:35;6.53;;;3.42;;
63398;SDS011;49533;-34.520;150.798;2023-04-25T02:03:04;5.13;;;3.20;;
63398;SDS011;49533;-34.520;150.798;2023-04-25T02:05:35;5.03;;;3.38;;
63398;SDS011;49533;-34.520;150.798;2023-04-25T02:08:04;8.70;;;3.35;;
63398;SDS011;49533;-34.520;150.798;2023-04-25T02:10:33;6.78;;;3.47;;
63398;SDS011;49533;-34.520;150.798;2023-04-25T02:13:01;4.10;;;2.97;;
63398;SDS011;49533;-34.520;150.798;2023-04-25T02:15:30;5.47;;;3.33;;
63398;SDS011;49533;-34.520;150.798;2023-04-25T02:17:57;5.88;;;3.47;;
63398;SDS011;49533;-34.520;150.798;2023-04-25T02:20:25;9.60;;;3.30;;
63398;SDS011;49533;-34.520;150.798;2023-04-25T02:22:54;8.35;;;3.88;;
63398;SDS011;49533;-34.520;150.798;2023-04-25T02:25:21;5.78;;;3.38;;
63398;SDS011;49533;-34.520;150.798;2023-04-25T02:27:49;6.38;;;3.33;;
63398;SDS011;49533;-34.520;150.798;2023-04-25T02:30:17;7.70;;;3.30;;
63398;SDS011;49533;-34.520;150.798;2023-04-25T02:32:44;5.93;;;3.35;;
63398;SDS011;49533;-34.520;150.798;2023-04-25T02:35:11;5.95;;;2.88;;
63398;SDS011;49533;-34.520;150.798;2023-04-25T02:37:39;6.30;;;3.47;;
63398;SDS011;49533;-34.520;150.798;2023-04-25T02:40:06;8.10;;;3.33;;
63398;SDS011;49533;-34.520;150.798;2023-04-25T02:42:34;6.25;;;3.33;;
63398;SDS011;49533;-34.520;150.798;2023-04-25T02:45:02;8.75;;;3.13;;
63398;SDS011;49533;-34.520;150.798;2023-04-25T02:47:30;5.78;;;3.30;;
63398;SDS011;49533;-34.520;150.798;2023-04-25T02:49:57;7.57;;;3.72;;
63398;SDS011;49533;-34.520;150.798;2023-04-25T02:52:25;5.50;;;2.95;;
63398;SDS011;49533;-34.520;150.798;2023-04-25T02:54:52;9.25;;;3.65;;
63398;SDS011;49533;-34.520;150.798;2023-04-25T02:57:19;7.45;;;3.20;;
63398;SDS011;49533;-34.520;150.798;2023-04-25T02:59:46;7.47;;;2.85;;
63398;SDS011;49533;-34.520;150.798;2023-04-25T03:02:13;6.20;;;3.20;;
63398;SDS011;49533;-34.520;150.798;2023-04-25T03:04:41;6.70;;;2.88;;
63398;SDS011;49533;-34.520;150.798;2023-04-25T03:07:08;10.40;;;3.28;;
63398;SDS011;49533;-34.520;150.798;2023-04-25T03:09:35;7.68;;;3.30;;
63398;SDS011;49533;-34.520;150.798;2023-04-25T03:12:02;8.18;;;3.10;;
63398;SDS011;49533;-34.520;150.798;2023-04-25T03:14:30;7.20;;;2.90;;
63398;SDS011;49533;-34.520;150.798;2023-04-25T03:16:57;8.68;;;3.55;;
63398;SDS011;49533;-34.520;150.798;2023-04-25T03:19:25;6.55;;;3.25;;
63398;SDS011;49533;-34.520;150.798;2023-04-25T03:21:53;7.55;;;3.05;;
63398;SDS011;49533;-34.520;150.798;2023-04-25T03:24:20;7.75;;;3.25;;
63398;SDS011;49533;-34.520;150.798;2023-04-25T03:26:47;5.72;;;2.95;;
63398;SDS011;49533;-34.520;150.798;2023-04-25T03:29:14;6.70;;;3.20;;
63398;SDS011;49533;-34.520;150.798;2023-04-25T03:31:41;7.65;;;3.50;;
63398;SDS011;49533;-34.520;150.798;2023-04-25T03:34:08;9.80;;;4.30;;
63398;SDS011;49533;-34.520;150.798;2023-04-25T03:36:35;9.88;;;4.15;;
63398;SDS011;49533;-34.520;150.798;2023-04-25T03:39:03;9.15;;;4.35;;
63398;SDS011;49533;-34.520;150.798;2023-04-25T03:41:30;10.02;;;4.63;;
63398;SDS011;49533;-34.520;150.798;2023-04-25T03:43:57;5.97;;;3.95;;
63398;SDS011;49533;-34.520;150.798;2023-04-25T03:46:24;8.48;;;4.28;;
63398;SDS011;49533;-34.520;150.798;2023-04-25T03:48:51;7.13;;;4.03;;
63398;SDS011;49533;-34.520;150.798;2023-04-25T03:51:19;8.07;;;4.00;;
63398;SDS011;49533;-34.520;150.798;2023-04-25T03:53:47;9.13;;;4.38;;
63398;SDS011;49533;-34.520;150.798;2023-04-25T03:56:14;6.22;;;4.28;;
63398;SDS011;49533;-34.520;150.798;2023-04-25T03:58:41;8.35;;;3.72;;
63398;SDS011;49533;-34.520;150.798;2023-04-25T04:01:08;8.38;;;4.60;;
63398;SDS011;49533;-34.520;150.798;2023-04-25T04:03:36;9.00;;;4.15;;
63398;SDS011;49533;-34.520;150.798;2023-04-25T04:06:04;7.57;;;4.38;;
63398;SDS011;49533;-34.520;150.798;2023-04-25T04:08:32;5.80;;;4.10;;
63398;SDS011;49533;-34.520;150.798;2023-04-25T04:11:00;5.53;;;3.90;;
63398;SDS011;49533;-34.520;150.798;2023-04-25T04:13:27;7.38;;;4.13;;
63398;SDS011;49533;-34.520;150.798;2023-04-25T04:15:55;5.20;;;4.10;;
63398;SDS011;49533;-34.520;150.798;2023-04-25T04:18:23;7.10;;;3.85;;
63398;SDS011;49533;-34.520;150.798;2023-04-25T04:20:50;6.47;;;4.43;;
63398;SDS011;49533;-34.520;150.798;2023-04-25T04:23:18;6.90;;;4.10;;
63398;SDS011;49533;-34.520;150.798;2023-04-25T04:25:46;8.77;;;4.00;;
63398;SDS011;49533;-34.520;150.798;2023-04-25T04:28:14;7.90;;;4.60;;
63398;SDS011;49533;-34.520;150.798;2023-04-25T04:30:42;7.03;;;4.35;;
63398;SDS011;49533;-34.520;150.798;2023-04-25T04:33:12;9.75;;;4.95;;
63398;SDS011;49533;-34.520;150.798;2023-04-25T04:35:41;7.00;;;4.50;;
63398;SDS011;49533;-34.520;150.798;2023-04-25T04:38:08;7.38;;;4.05;;
63398;SDS011;49533;-34.520;150.798;2023-04-25T04:40:36;6.53;;;4.32;;
63398;SDS011;49533;-34.520;150.798;2023-04-25T04:43:03;8.05;;;4.32;;
63398;SDS011;49533;-34.520;150.798;2023-04-25T04:45:34;8.80;;;4.68;;
63398;SDS011;49533;-34.520;150.798;2023-04-25T04:48:02;7.40;;;4.40;;
63398;SDS011;49533;-34.520;150.798;2023-04-25T04:50:31;8.50;;;4.35;;
63398;SDS011;49533;-34.520;150.798;2023-04-25T04:52:58;7.78;;;4.35;;
63398;SDS011;49533;-34.520;150.798;2023-04-25T04:55:25;7.55;;;4.40;;
63398;SDS011;49533;-34.520;150.798;2023-04-25T04:57:53;7.57;;;4.38;;
63398;SDS011;49533;-34.520;150.798;2023-04-25T05:00:20;6.13;;;3.85;;
63398;SDS011;49533;-34.520;150.798;2023-04-25T05:02:47;9.95;;;4.82;;
63398;SDS011;49533;-34.520;150.798;2023-04-25T05:05:14;8.07;;;4.22;;
63398;SDS011;49533;-34.520;150.798;2023-04-25T05:07:42;8.18;;;4.40;;
63398;SDS011;49533;-34.520;150.798;2023-04-25T05:10:09;8.30;;;4.50;;
63398;SDS011;49533;-34.520;150.798;2023-04-25T05:12:36;8.98;;;4.38;;
63398;SDS011;49533;-34.520;150.798;2023-04-25T05:15:04;7.15;;;4.50;;
63398;SDS011;49533;-34.520;150.798;2023-04-25T05:17:31;8.27;;;4.50;;
63398;SDS011;49533;-34.520;150.798;2023-04-25T05:19:58;10.43;;;4.55;;
63398;SDS011;49533;-34.520;150.798;2023-04-25T05:22:25;9.80;;;4.82;;
63398;SDS011;49533;-34.520;150.798;2023-04-25T05:24:53;5.03;;;3.92;;
63398;SDS011;49533;-34.520;150.798;2023-04-25T05:27:20;7.85;;;4.15;;
63398;SDS011;49533;-34.520;150.798;2023-04-25T05:29:48;8.05;;;3.97;;
63398;SDS011;49533;-34.520;150.798;2023-04-25T05:32:15;8.35;;;4.43;;
63398;SDS011;49533;-34.520;150.798;2023-04-25T05:34:42;8.10;;;4.22;;
63398;SDS011;49533;-34.520;150.798;2023-04-25T05:37:09;7.45;;;3.70;;
63398;SDS011;49533;-34.520;150.798;2023-04-25T05:39:36;6.45;;;4.07;;
63398;SDS011;49533;-34.520;150.798;2023-04-25T05:42:03;7.50;;;3.88;;
63398;SDS011;49533;-34.520;150.798;2023-04-25T05:44:31;9.68;;;4.72;;
63398;SDS011;49533;-34.520;150.798;2023-04-25T05:46:58;6.95;;;3.70;;
63398;SDS011;49533;-34.520;150.798;2023-04-25T05:49:25;6.68;;;3.60;;
63398;SDS011;49533;-34.520;150.798;2023-04-25T05:51:52;6.60;;;3.80;;
63398;SDS011;49533;-34.520;150.798;2023-04-25T05:54:20;6.10;;;3.78;;
63398;SDS011;49533;-34.520;150.798;2023-04-25T05:56:47;7.47;;;3.60;;
63398;SDS011;49533;-34.520;150.798;2023-04-25T05:59:14;8.07;;;3.70;;
63398;SDS011;49533;-34.520;150.798;2023-04-25T06:01:41;9.38;;;4.30;;
63398;SDS011;49533;-34.520;150.798;2023-04-25T06:04:08;6.60;;;3.92;;
63398;SDS011;49533;-34.520;150.798;2023-04-25T06:06:36;10.90;;;3.80;;
63398;SDS011;49533;-34.520;150.798;2023-04-25T06:09:03;6.95;;;3.35;;
63398;SDS011;49533;-34.520;150.798;2023-04-25T06:11:30;6.80;;;3.65;;
63398;SDS011;49533;-34.520;150.798;2023-04-25T06:13:57;9.75;;;4.07;;
63398;SDS011;49533;-34.520;150.798;2023-04-25T06:16:24;9.32;;;4.30;;
63398;SDS011;49533;-34.520;150.798;2023-04-25T06:18:52;8.48;;;3.85;;
63398;SDS011;49533;-34.520;150.798;2023-04-25T06:21:19;12.38;;;3.88;;
63398;SDS011;49533;-34.520;150.798;2023-04-25T06:23:46;9.70;;;3.80;;
63398;SDS011;49533;-34.520;150.798;2023-04-25T06:26:13;10.73;;;3.70;;
63398;SDS011;49533;-34.520;150.798;2023-04-25T06:28:40;11.13;;;4.25;;
63398;SDS011;49533;-34.520;150.798;2023-04-25T06:31:08;6.10;;;3.17;;
63398;SDS011;49533;-34.520;150.798;2023-04-25T06:33:35;8.88;;;3.53;;
63398;SDS011;49533;-34.520;150.798;2023-04-25T06:36:03;8.07;;;3.88;;
63398;SDS011;49533;-34.520;150.798;2023-04-25T06:38:30;6.35;;;3.22;;
63398;SDS011;49533;-34.520;150.798;2023-04-25T06:40:57;11.02;;;4.70;;
63398;SDS011;49533;-34.520;150.798;2023-04-25T06:43:24;10.13;;;3.50;;
63398;SDS011;49533;-34.520;150.798;2023-04-25T06:45:51;7.22;;;3.50;;
63398;SDS011;49533;-34.520;150.798;2023-04-25T06:48:19;6.50;;;3.53;;
63398;SDS011;49533;-34.520;150.798;2023-04-25T06:50:46;7.50;;;3.42;;
63398;SDS011;49533;-34.520;150.798;2023-04-25T06:53:13;8.45;;;3.15;;
63398;SDS011;49533;-34.520;150.798;2023-04-25T06:55:40;8.57;;;3.50;;
63398;SDS011;49533;-34.520;150.798;2023-04-25T06:58:07;9.27;;;3.58;;
63398;SDS011;49533;-34.520;150.798;2023-04-25T07:00:34;9.18;;;3.67;;
63398;SDS011;49533;-34.520;150.798;2023-04-25T07:03:02;11.10;;;3.67;;
63398;SDS011;49533;-34.520;150.798;2023-04-25T07:05:30;10.80;;;3.55;;
63398;SDS011;49533;-34.520;150.798;2023-04-25T07:07:57;7.57;;;3.40;;
63398;SDS011;49533;-34.520;150.798;2023-04-25T07:10:24;6.95;;;3.33;;
63398;SDS011;49533;-34.520;150.798;2023-04-25T07:12:51;9.20;;;3.38;;
63398;SDS011;49533;-34.520;150.798;2023-04-25T07:15:18;10.55;;;3.20;;
63398;SDS011;49533;-34.520;150.798;2023-04-25T07:17:45;13.07;;;3.95;;
63398;SDS011;49533;-34.520;150.798;2023-04-25T07:20:12;8.50;;;2.97;;
63398;SDS011;49533;-34.520;150.798;2023-04-25T07:22:40;13.13;;;4.10;;
63398;SDS011;49533;-34.520;150.798;2023-04-25T07:25:07;10.02;;;3.33;;
63398;SDS011;49533;-34.520;150.798;2023-04-25T07:27:34;10.82;;;3.53;;
63398;SDS011;49533;-34.520;150.798;2023-04-25T07:30:02;9.85;;;3.00;;
63398;SDS011;49533;-34.520;150.798;2023-04-25T07:32:29;5.00;;;2.72;;
63398;SDS011;49533;-34.520;150.798;2023-04-25T07:34:57;6.60;;;2.80;;
63398;SDS011;49533;-34.520;150.798;2023-04-25T07:37:25;9.27;;;3.38;;
63398;SDS011;49533;-34.520;150.798;2023-04-25T07:39:52;7.93;;;3.28;;
63398;SDS011;49533;-34.520;150.798;2023-04-25T07:42:19;10.35;;;3.78;;
63398;SDS011;49533;-34.520;150.798;2023-04-25T07:44:46;13.15;;;3.50;;
63398;SDS011;49533;-34.520;150.798;2023-04-25T07:47:13;10.88;;;3.78;;
63398;SDS011;49533;-34.520;150.798;2023-04-25T07:49:41;11.23;;;3.47;;
63398;SDS011;49533;-34.520;150.798;2023-04-25T07:52:08;6.80;;;2.97;;
63398;SDS011;49533;-34.520;150.798;2023-04-25T07:54:35;8.77;;;3.20;;
63398;SDS011;49533;-34.520;150.798;2023-04-25T07:57:02;8.25;;;3.20;;
63398;SDS011;49533;-34.520;150.798;2023-04-25T07:59:31;9.93;;;3.08;;
63398;SDS011;49533;-34.520;150.798;2023-04-25T08:01:59;8.60;;;3.33;;
63398;SDS011;49533;-34.520;150.798;2023-04-25T08:04:28;5.50;;;2.95;;
63398;SDS011;49533;-34.520;150.798;2023-04-25T08:06:55;10.65;;;3.78;;
63398;SDS011;49533;-34.520;150.798;2023-04-25T08:09:23;8.60;;;3.00;;
63398;SDS011;49533;-34.520;150.798;2023-04-25T08:11:50;7.65;;;3.33;;
63398;SDS011;49533;-34.520;150.798;2023-04-25T08:14:17;8.40;;;3.65;;
63398;SDS011;49533;-34.520;150.798;2023-04-25T08:16:45;10.52;;;3.47;;
63398;SDS011;49533;-34.520;150.798;2023-04-25T08:19:13;9.13;;;3.33;;
63398;SDS011;49533;-34.520;150.798;2023-04-25T08:21:40;8.32;;;3.25;;
63398;SDS011;49533;-34.520;150.798;2023-04-25T08:24:07;13.20;;;3.65;;
63398;SDS011;49533;-34.520;150.798;2023-04-25T08:26:34;7.47;;;3.20;;
63398;SDS011;49533;-34.520;150.798;2023-04-25T08:29:02;10.30;;;3.35;;
63398;SDS011;49533;-34.520;150.798;2023-04-25T08:31:31;6.68;;;3.08;;
63398;SDS011;49533;-34.520;150.798;2023-04-25T08:33:58;8.85;;;3.28;;
63398;SDS011;49533;-34.520;150.798;2023-04-25T08:36:25;8.32;;;3.50;;
63398;SDS011;49533;-34.520;150.798;2023-04-25T08:38:54;8.27;;;3.20;;
63398;SDS011;49533;-34.520;150.798;2023-04-25T08:41:21;8.48;;;3.25;;
63398;SDS011;49533;-34.520;150.798;2023-04-25T08:43:49;9.00;;;3.03;;
63398;SDS011;49533;-34.520;150.798;2023-04-25T08:46:17;9.48;;;3.20;;
63398;SDS011;49533;-34.520;150.798;2023-04-25T08:48:45;5.47;;;3.13;;
63398;SDS011;49533;-34.520;150.798;2023-04-25T08:51:17;8.48;;;3.53;;
63398;SDS011;49533;-34.520;150.798;2023-04-25T08:53:50;6.55;;;2.95;;
63398;SDS011;49533;-34.520;150.798;2023-04-25T08:56:18;8.45;;;3.35;;
63398;SDS011;49533;-34.520;150.798;2023-04-25T08:58:48;9.23;;;3.30;;
63398;SDS011;49533;-34.520;150.798;2023-04-25T09:01:17;6.80;;;3.45;;
63398;SDS011;49533;-34.520;150.798;2023-04-25T09:03:45;10.73;;;3.60;;
63398;SDS011;49533;-34.520;150.798;2023-04-25T09:06:12;7.28;;;3.08;;
63398;SDS011;49533;-34.520;150.798;2023-04-25T09:08:41;8.23;;;3.28;;
63398;SDS011;49533;-34.520;150.798;2023-04-25T09:11:09;7.40;;;3.38;;
63398;SDS011;49533;-34.520;150.798;2023-04-25T09:13:37;5.05;;;2.53;;
63398;SDS011;49533;-34.520;150.798;2023-04-25T09:16:04;7.32;;;3.17;;
63398;SDS011;49533;-34.520;150.798;2023-04-25T09:18:32;6.57;;;2.92;;
63398;SDS011;49533;-34.520;150.798;2023-04-25T09:21:05;9.05;;;3.05;;
63398;SDS011;49533;-34.520;150.798;2023-04-25T09:23:39;6.47;;;2.95;;
63398;SDS011;49533;-34.520;150.798;2023-04-25T09:26:08;7.70;;;3.08;;
63398;SDS011;49533;-34.520;150.798;2023-04-25T09:28:35;6.03;;;3.00;;
63398;SDS011;49533;-34.520;150.798;2023-04-25T09:31:03;8.95;;;2.88;;
63398;SDS011;49533;-34.520;150.798;2023-04-25T09:33:31;7.30;;;3.10;;
63398;SDS011;49533;-34.520;150.798;2023-04-25T09:36:02;10.40;;;3.47;;
63398;SDS011;49533;-34.520;150.798;2023-04-25T09:38:36;5.13;;;2.70;;
63398;SDS011;49533;-34.520;150.798;2023-04-25T09:41:07;8.43;;;2.67;;
63398;SDS011;49533;-34.520;150.798;2023-04-25T09:43:36;5.82;;;3.40;;
63398;SDS011;49533;-34.520;150.798;2023-04-25T09:46:07;8.25;;;3.60;;
63398;SDS011;49533;-34.520;150.798;2023-04-25T09:48:36;6.65;;;3.10;;
63398;SDS011;49533;-34.520;150.798;2023-04-25T09:51:06;9.40;;;3.13;;
63398;SDS011;49533;-34.520;150.798;2023-04-25T09:53:36;5.20;;;2.65;;
63398;SDS011;49533;-34.520;150.798;2023-04-25T09:56:04;5.72;;;3.00;;
63398;SDS011;49533;-34.520;150.798;2023-04-25T09:58:33;5.47;;;2.97;;
63398;SDS011;49533;-34.520;150.798;2023-04-25T10:01:03;8.38;;;3.10;;
63398;SDS011;49533;-34.520;150.798;2023-04-25T10:03:32;6.72;;;2.95;;
63398;SDS011;49533;-34.520;150.798;2023-04-25T10:06:02;6.85;;;2.83;;
63398;SDS011;49533;-34.520;150.798;2023-04-25T10:08:34;7.75;;;3.38;;
63398;SDS011;49533;-34.520;150.798;2023-04-25T10:11:03;6.53;;;3.13;;
63398;SDS011;49533;-34.520;150.798;2023-04-25T10:13:33;5.78;;;2.85;;
63398;SDS011;49533;-34.520;150.798;2023-04-25T10:16:03;7.63;;;2.75;;
63398;SDS011;49533;-34.520;150.798;2023-04-25T10:18:31;6.20;;;3.15;;
63398;SDS011;49533;-34.520;150.798;2023-04-25T10:20:59;7.63;;;3.33;;
63398;SDS011;49533;-34.520;150.798;2023-04-25T10:23:29;8.30;;;3.25;;
63398;SDS011;49533;-34.520;150.798;2023-04-25T10:25:57;9.65;;;3.03;;
63398;SDS011;49533;-34.520;150.798;2023-04-25T10:28:25;4.45;;;2.75;;
63398;SDS011;49533;-34.520;150.798;2023-04-25T10:30:59;7.78;;;3.55;;
63398;SDS011;49533;-34.520;150.798;2023-04-25T10:33:32;7.95;;;3.25;;
63398;SDS011;49533;-34.520;150.798;2023-04-25T10:36:12;12.43;;;3.60;;
63398;SDS011;49533;-34.520;150.798;2023-04-25T10:38:44;6.65;;;2.92;;
63398;SDS011;49533;-34.520;150.798;2023-04-25T10:41:13;7.75;;;3.30;;
63398;SDS011;49533;-34.520;150.798;2023-04-25T10:43:44;5.38;;;2.60;;
63398;SDS011;49533;-34.520;150.798;2023-04-25T10:46:14;5.95;;;2.75;;
63398;SDS011;49533;-34.520;150.798;2023-04-25T10:48:50;7.97;;;2.85;;
63398;SDS011;49533;-34.520;150.798;2023-04-25T10:51:20;5.38;;;3.38;;
63398;SDS011;49533;-34.520;150.798;2023-04-25T10:53:59;6.25;;;3.03;;
63398;SDS011;49533;-34.520;150.798;2023-04-25T10:56:30;4.38;;;2.72;;
63398;SDS011;49533;-34.520;150.798;2023-04-25T10:59:11;9.50;;;2.80;;
63398;SDS011;49533;-34.520;150.798;2023-04-25T11:01:46;4.97;;;2.83;;
63398;SDS011;49533;-34.520;150.798;2023-04-25T11:04:23;6.45;;;2.75;;
63398;SDS011;49533;-34.520;150.798;2023-04-25T11:07:05;5.28;;;2.70;;
63398;SDS011;49533;-34.520;150.798;2023-04-25T11:09:52;4.80;;;2.70;;
63398;SDS011;49533;-34.520;150.798;2023-04-25T11:12:20;7.90;;;3.20;;
63398;SDS011;49533;-34.520;150.798;2023-04-25T11:14:47;3.67;;;2.55;;
63398;SDS011;49533;-34.520;150.798;2023-04-25T11:17:15;6.65;;;3.17;;
63398;SDS011;49533;-34.520;150.798;2023-04-25T11:19:42;7.40;;;2.92;;
63398;SDS011;49533;-34.520;150.798;2023-04-25T11:22:09;6.47;;;3.15;;
63398;SDS011;49533;-34.520;150.798;2023-04-25T11:24:38;6.68;;;3.47;;
63398;SDS011;49533;-34.520;150.798;2023-04-25T11:27:05;7.57;;;3.40;;
63398;SDS011;49533;-34.520;150.798;2023-04-25T11:29:33;9.00;;;2.88;;
63398;SDS011;49533;-34.520;150.798;2023-04-25T11:32:01;3.85;;;2.67;;
63398;SDS011;49533;-34.520;150.798;2023-04-25T11:34:28;5.32;;;2.72;;
63398;SDS011;49533;-34.520;150.798;2023-04-25T11:36:58;5.65;;;2.70;;
63398;SDS011;49533;-34.520;150.798;2023-04-25T11:39:27;6.18;;;2.55;;
63398;SDS011;49533;-34.520;150.798;2023-04-25T11:41:55;7.15;;;2.58;;
63398;SDS011;49533;-34.520;150.798;2023-04-25T11:44:22;7.07;;;3.08;;
63398;SDS011;49533;-34.520;150.798;2023-04-25T11:46:50;6.55;;;2.70;;
63398;SDS011;49533;-34.520;150.798;2023-04-25T11:49:17;4.15;;;2.53;;
63398;SDS011;49533;-34.520;150.798;2023-04-25T11:51:45;6.13;;;2.83;;
63398;SDS011;49533;-34.520;150.798;2023-04-25T11:54:14;6.40;;;2.85;;
63398;SDS011;49533;-34.520;150.798;2023-04-25T11:56:43;5.90;;;3.10;;
63398;SDS011;49533;-34.520;150.798;2023-04-25T11:59:11;5.05;;;2.25;;
63398;SDS011;49533;-34.520;150.798;2023-04-25T12:01:40;6.18;;;2.78;;
63398;SDS011;49533;-34.520;150.798;2023-04-25T12:04:14;4.65;;;2.42;;
63398;SDS011;49533;-34.520;150.798;2023-04-25T12:06:44;6.22;;;3.28;;
63398;SDS011;49533;-34.520;150.798;2023-04-25T12:09:15;4.85;;;2.67;;
63398;SDS011;49533;-34.520;150.798;2023-04-25T12:11:47;5.53;;;2.90;;
63398;SDS011;49533;-34.520;150.798;2023-04-25T12:14:22;5.25;;;2.90;;
63398;SDS011;49533;-34.520;150.798;2023-04-25T12:16:54;7.20;;;2.63;;
63398;SDS011;49533;-34.520;150.798;2023-04-25T12:19:23;6.20;;;2.60;;
63398;SDS011;49533;-34.520;150.798;2023-04-25T12:21:51;5.75;;;2.58;;
63398;SDS011;49533;-34.520;150.798;2023-04-25T12:24:23;7.72;;;3.13;;
63398;SDS011;49533;-34.520;150.798;2023-04-25T12:27:02;5.40;;;2.85;;
63398;SDS011;49533;-34.520;150.798;2023-04-25T12:29:32;6.03;;;2.60;;
63398;SDS011;49533;-34.520;150.798;2023-04-25T12:32:00;8.30;;;2.83;;
63398;SDS011;49533;-34.520;150.798;2023-04-25T12:34:27;7.35;;;2.90;;
63398;SDS011;49533;-34.520;150.798;2023-04-25T12:36:54;4.80;;;2.70;;
63398;SDS011;49533;-34.520;150.798;2023-04-25T12:39:23;5.28;;;2.53;;
63398;SDS011;49533;-34.520;150.798;2023-04-25T12:41:51;5.68;;;3.15;;
63398;SDS011;49533;-34.520;150.798;2023-04-25T12:44:20;7.13;;;3.15;;
63398;SDS011;49533;-34.520;150.798;2023-04-25T12:46:47;6.45;;;2.85;;
63398;SDS011;49533;-34.520;150.798;2023-04-25T12:49:16;3.88;;;2.33;;
63398;SDS011;49533;-34.520;150.798;2023-04-25T12:51:43;7.75;;;3.13;;
63398;SDS011;49533;-34.520;150.798;2023-04-25T12:54:10;5.30;;;2.38;;
63398;SDS011;49533;-34.520;150.798;2023-04-25T12:56:40;6.80;;;2.80;;
63398;SDS011;49533;-34.520;150.798;2023-04-25T12:59:07;7.05;;;2.55;;
63398;SDS011;49533;-34.520;150.798;2023-04-25T13:01:35;5.93;;;2.53;;
63398;SDS011;49533;-34.520;150.798;2023-04-25T13:04:02;8.15;;;2.75;;
63398;SDS011;49533;-34.520;150.798;2023-04-25T13:06:29;8.77;;;2.75;;
63398;SDS011;49533;-34.520;150.798;2023-04-25T13:08:56;5.72;;;2.53;;
63398;SDS011;49533;-34.520;150.798;2023-04-25T13:11:24;5.35;;;2.38;;
63398;SDS011;49533;-34.520;150.798;2023-04-25T13:13:51;7.05;;;2.58;;
63398;SDS011;49533;-34.520;150.798;2023-04-25T13:16:18;9.07;;;3.30;;
63398;SDS011;49533;-34.520;150.798;2023-04-25T13:18:46;6.03;;;2.58;;
63398;SDS011;49533;-34.520;150.798;2023-04-25T13:21:14;5.80;;;2.50;;
63398;SDS011;49533;-34.520;150.798;2023-04-25T13:23:41;4.88;;;2.45;;
63398;SDS011;49533;-34.520;150.798;2023-04-25T13:26:10;6.00;;;2.17;;
63398;SDS011;49533;-34.520;150.798;2023-04-25T13:28:37;6.20;;;2.65;;
63398;SDS011;49533;-34.520;150.798;2023-04-25T13:31:06;7.78;;;2.33;;
63398;SDS011;49533;-34.520;150.798;2023-04-25T13:33:33;6.38;;;2.67;;
63398;SDS011;49533;-34.520;150.798;2023-04-25T13:36:00;5.35;;;2.47;;
63398;SDS011;49533;-34.520;150.798;2023-04-25T13:38:27;8.05;;;2.83;;
63398;SDS011;49533;-34.520;150.798;2023-04-25T13:40:55;10.13;;;3.30;;
63398;SDS011;49533;-34.520;150.798;2023-04-25T13:43:22;5.55;;;2.88;;
63398;SDS011;49533;-34.520;150.798;2023-04-25T13:45:49;7.72;;;2.75;;
63398;SDS011;49533;-34.520;150.798;2023-04-25T13:48:18;6.72;;;2.55;;
63398;SDS011;49533;-34.520;150.798;2023-04-25T13:50:46;6.35;;;2.65;;
63398;SDS011;49533;-34.520;150.798;2023-04-25T13:53:13;5.32;;;2.80;;
63398;SDS011;49533;-34.520;150.798;2023-04-25T13:55:41;7.15;;;3.00;;
63398;SDS011;49533;-34.520;150.798;2023-04-25T13:58:08;6.68;;;3.13;;
63398;SDS011;49533;-34.520;150.798;2023-04-25T14:00:36;6.90;;;3.05;;
63398;SDS011;49533;-34.520;150.798;2023-04-25T14:03:04;6.65;;;2.45;;
63398;SDS011;49533;-34.520;150.798;2023-04-25T14:05:33;7.85;;;3.03;;
63398;SDS011;49533;-34.520;150.798;2023-04-25T14:08:04;3.95;;;2.05;;
63398;SDS011;49533;-34.520;150.798;2023-04-25T14:10:32;8.30;;;2.85;;
63398;SDS011;49533;-34.520;150.798;2023-04-25T14:13:00;7.18;;;2.45;;
63398;SDS011;49533;-34.520;150.798;2023-04-25T14:15:29;3.70;;;1.92;;